Time;durP1;ratioP1;P1;durP2;ratioP2;P2;SDS_P1;SDS_P2;PMS_P1;PMS_P2;Temp;Humidity;BMP_temperature;BMP_pressure;BME280_temperature;BME280_humidity;BME280_pressure;Samples;Min_cycle;Max_cycle;Signal;HPM_P1;HPM_P2
2023/03/20 00:01:29;;;;;;;16.80;4.63;;;12.00;99.90;;;;;;5048382;28;20416;-61
2023/03/20 00:03:56;;;;;;;18.10;3.92;;;10.80;99.90;;;;;;5031560;28;20047;-61
2023/03/20 00:06:27;;;;;;;16.88;4.15;;;11.60;99.90;;;;;;5046835;28;20510;-61
2023/03/20 00:08:55;;;;;;;17.98;5.10;;;9.30;99.90;;;;;;5052026;28;20048;-61
2023/03/20 00:11:32;;;;;;;17.25;5.13;;;11.80;99.90;;;;;;5051117;28;20037;-61
2023/03/20 00:14:03;;;;;;;21.83;6.10;;;12.10;99.90;;;;;;5051540;28;20036;-61
2023/03/20 00:16:31;;;;;;;16.75;5.63;;;12.10;99.90;;;;;;5052222;28;20511;-61
2023/03/20 00:18:57;;;;;;;23.65;5.88;;;10.10;99.90;;;;;;5049769;28;20032;-61
2023/03/20 00:21:23;;;;;;;22.35;6.13;;;10.70;99.90;;;;;;5033715;28;20054;-61
2023/03/20 00:23:48;;;;;;;17.00;6.30;;;9.60;99.90;;;;;;5030913;28;20106;-61
2023/03/20 00:26:19;;;;;;;22.13;6.07;;;10.50;99.90;;;;;;5049535;28;20037;-61
2023/03/20 00:28:48;;;;;;;21.63;5.72;;;11.70;99.90;;;;;;5051659;28;20170;-61
2023/03/20 00:31:24;;;;;;;23.98;5.50;;;11.80;99.90;;;;;;5038325;28;20130;-61
2023/03/20 00:33:50;;;;;;;23.35;5.65;;;11.60;99.90;;;;;;5046197;28;20494;-61
2023/03/20 00:36:16;;;;;;;21.50;5.60;;;10.40;99.90;;;;;;5039749;28;20514;-61
2023/03/20 00:38:42;;;;;;;18.67;5.70;;;12.50;99.90;;;;;;5046595;28;20032;-61
2023/03/20 00:41:30;;;;;;;19.40;5.95;;;12.20;99.90;;;;;;5048733;28;20060;-61
2023/03/20 00:44:04;;;;;;;21.63;5.97;;;9.70;99.90;;;;;;5066269;28;20299;-61
2023/03/20 00:46:36;;;;;;;23.42;6.63;;;10.30;99.90;;;;;;5044701;28;20036;-61
2023/03/20 00:49:02;;;;;;;20.95;6.70;;;12.20;99.90;;;;;;5051397;28;20106;-61
2023/03/20 00:51:27;;;;;;;18.27;6.82;;;10.50;99.90;;;;;;5047877;28;20037;-61
2023/03/20 00:53:53;;;;;;;28.33;7.10;;;12.00;99.90;;;;;;5034454;28;20207;-61
2023/03/20 00:56:33;;;;;;;20.05;6.65;;;10.10;99.90;;;;;;5031504;28;20432;-61
2023/03/20 00:59:01;;;;;;;20.88;6.60;;;12.10;99.90;;;;;;5029972;28;20038;-61
2023/03/20 01:01:28;;;;;;;23.80;6.00;;;9.90;99.90;;;;;;5043801;28;20045;-61
2023/03/20 01:03:54;;;;;;;18.77;7.30;;;9.70;99.90;;;;;;5050239;28;20041;-61
2023/03/20 01:06:19;;;;;;;18.02;6.55;;;9.70;99.90;;;;;;5049142;28;20033;-61
2023/03/20 01:08:45;;;;;;;27.38;6.53;;;10.30;99.90;;;;;;5048917;28;20052;-61
2023/03/20 01:11:12;;;;;;;21.70;6.60;;;12.10;99.90;;;;;;5048620;28;20040;-61
2023/03/20 01:13:39;;;;;;;20.40;6.30;;;11.40;99.90;;;;;;5043531;28;20041;-61
2023/03/20 01:16:06;;;;;;;20.00;6.43;;;9.80;99.90;;;;;;5044239;28;20041;-61
2023/03/20 01:18:32;;;;;;;18.67;5.95;;;9.80;99.90;;;;;;5050943;28;20790;-61
2023/03/20 01:20:58;;;;;;;20.92;6.32;;;12.30;99.90;;;;;;5040290;28;20072;-62
2023/03/20 01:23:25;;;;;;;16.65;5.78;;;11.90;99.90;;;;;;5031158;28;20080;-62
2023/03/20 01:25:51;;;;;;;19.45;6.05;;;12.50;99.90;;;;;;5045185;28;20032;-61
2023/03/20 01:28:19;;;;;;;22.00;5.90;;;12.30;99.90;;;;;;5050815;28;20047;-61
2023/03/20 01:30:46;;;;;;;16.77;5.63;;;10.90;99.90;;;;;;5047536;28;20041;-61
2023/03/20 01:33:20;;;;;;;11.90;4.72;;;12.40;99.90;;;;;;5050856;28;20047;-61
2023/03/20 01:35:47;;;;;;;19.13;4.97;;;12.10;99.90;;;;;;5041875;28;20033;-61
2023/03/20 01:38:22;;;;;;;14.05;4.60;;;10.70;99.90;;;;;;5049927;28;20029;-61
2023/03/20 01:41:02;;;;;;;17.83;5.70;;;12.60;99.90;;;;;;5047670;28;20487;-61
2023/03/20 01:43:28;;;;;;;15.05;5.40;;;9.90;99.90;;;;;;5050827;28;20039;-61
2023/03/20 01:46:03;;;;;;;11.75;5.03;;;12.40;99.90;;;;;;5044430;28;20394;-61
2023/03/20 01:48:52;;;;;;;16.38;5.40;;;11.70;99.90;;;;;;5030653;28;20033;-61
2023/03/20 01:51:36;;;;;;;14.75;5.40;;;11.90;99.90;;;;;;5045570;28;20095;-61
2023/03/20 01:54:06;;;;;;;15.40;5.03;;;12.10;99.90;;;;;;5040542;28;20120;-61
2023/03/20 01:56:36;;;;;;;16.77;5.55;;;11.50;99.90;;;;;;5030093;28;20044;-61
2023/03/20 01:59:08;;;;;;;14.40;5.50;;;10.20;99.90;;;;;;5030710;28;20820;-61
2023/03/20 02:01:35;;;;;;;16.50;5.30;;;10.60;99.90;;;;;;5030836;28;20045;-61
2023/03/20 02:04:01;;;;;;;14.13;6.00;;;9.90;99.90;;;;;;5032788;28;20535;-61
2023/03/20 02:06:28;;;;;;;18.13;6.32;;;12.70;99.90;;;;;;5042188;28;20449;-61
2023/03/20 02:08:53;;;;;;;15.70;5.57;;;10.00;99.90;;;;;;5043518;28;20546;-61
2023/03/20 02:11:22;;;;;;;12.40;5.47;;;12.70;99.90;;;;;;5035030;28;20132;-61
2023/03/20 02:13:55;;;;;;;8.25;4.25;;;12.30;99.90;;;;;;5041983;28;20501;-61
2023/03/20 02:16:21;;;;;;;11.73;4.85;;;10.20;99.90;;;;;;5054521;28;20100;-61
2023/03/20 02:18:50;;;;;;;9.48;3.97;;;10.10;99.90;;;;;;5054300;28;20444;-61
2023/03/20 02:21:40;;;;;;;10.65;4.32;;;11.00;99.90;;;;;;5035817;28;20396;-61
2023/03/20 02:24:08;;;;;;;11.35;4.40;;;10.40;99.90;;;;;;5034363;28;20124;-61
2023/03/20 02:27:08;;;;;;;8.90;3.78;;;10.30;99.90;;;;;;5047640;28;20087;-61
2023/03/20 02:29:45;;;;;;;10.75;4.28;;;11.10;99.90;;;;;;5035051;28;20099;-61
2023/03/20 02:32:29;;;;;;;15.05;4.63;;;10.80;99.90;;;;;;5054062;28;20052;-61
2023/03/20 02:35:19;;;;;;;13.80;5.55;;;10.40;99.90;;;;;;5053682;28;20041;-61
2023/03/20 02:38:10;;;;;;;14.73;5.63;;;12.70;99.90;;;;;;5034189;28;20052;-61
2023/03/20 02:40:36;;;;;;;14.73;4.90;;;12.00;99.90;;;;;;5044107;28;20087;-61
2023/03/20 02:43:13;;;;;;;12.82;4.75;;;12.10;99.90;;;;;;5052531;28;20077;-61
2023/03/20 02:46:02;;;;;;;10.48;4.88;;;10.00;99.90;;;;;;5053765;28;20033;-61
2023/03/20 02:48:57;;;;;;;13.02;5.15;;;11.70;99.90;;;;;;5052289;28;20033;-61
2023/03/20 02:51:38;;;;;;;11.40;5.05;;;11.90;99.90;;;;;;5047996;28;20079;-61
2023/03/20 02:54:06;;;;;;;12.77;5.75;;;12.10;99.90;;;;;;5053648;28;20110;-61
2023/03/20 02:56:56;;;;;;;11.85;5.32;;;10.90;99.90;;;;;;5049401;28;20041;-61
2023/03/20 02:59:28;;;;;;;13.98;6.00;;;12.70;99.90;;;;;;5032196;28;20580;-61
2023/03/20 03:02:03;;;;;;;12.98;5.47;;;11.70;99.90;;;;;;5049231;28;20083;-61
2023/03/20 03:04:34;;;;;;;14.15;6.63;;;11.80;99.90;;;;;;5052503;28;20420;-61
2023/03/20 03:07:02;;;;;;;15.63;5.70;;;12.20;99.90;;;;;;5053410;28;20045;-61
2023/03/20 03:09:42;;;;;;;14.57;5.57;;;10.40;99.90;;;;;;5053001;28;20486;-61
2023/03/20 03:12:20;;;;;;;18.88;5.60;;;10.60;99.90;;;;;;5047918;28;20499;-61
2023/03/20 03:14:50;;;;;;;14.48;5.90;;;12.20;99.90;;;;;;5032125;28;20384;-61
2023/03/20 03:17:18;;;;;;;12.20;4.90;;;14.20;99.90;;;;;;5033362;28;20442;-61
2023/03/20 03:19:48;;;;;;;12.52;5.22;;;10.60;99.90;;;;;;5037296;28;20603;-61
2023/03/20 03:22:15;;;;;;;10.50;5.13;;;12.60;99.90;;;;;;5049641;28;20061;-61
2023/03/20 03:24:46;;;;;;;16.42;4.28;;;12.40;99.90;;;;;;5052923;28;20112;-61
2023/03/20 03:27:35;;;;;;;8.73;4.40;;;12.20;99.90;;;;;;5046138;28;20052;-61
2023/03/20 03:30:16;;;;;;;10.98;4.68;;;11.80;99.90;;;;;;5032570;28;20053;-61
2023/03/20 03:32:49;;;;;;;11.98;5.30;;;10.30;99.90;;;;;;5046947;28;20037;-61
2023/03/20 03:35:18;;;;;;;9.73;4.85;;;12.20;99.90;;;;;;5049530;28;20029;-61
2023/03/20 03:37:50;;;;;;;13.70;6.03;;;10.50;99.90;;;;;;5052141;28;20065;-61
2023/03/20 03:40:29;;;;;;;13.52;5.95;;;12.40;99.90;;;;;;5047852;28;20048;-61
2023/03/20 03:43:10;;;;;;;17.27;6.72;;;10.20;99.90;;;;;;5052480;28;20529;-61
2023/03/20 03:45:56;;;;;;;17.48;7.03;;;11.40;99.90;;;;;;5051187;28;20053;-61
2023/03/20 03:48:25;;;;;;;;;;;11.70;99.90;;;;;;5051704;28;20167;-61
2023/03/20 03:50:55;;;;;;;13.45;6.43;;;12.30;99.90;;;;;;5049924;28;19982;-61
2023/03/20 03:53:30;;;;;;;14.45;6.88;;;12.00;99.90;;;;;;5048353;28;20060;-61
2023/03/20 03:56:01;;;;;;;16.15;7.13;;;10.20;99.90;;;;;;5052763;28;20572;-61
2023/03/20 03:58:35;;;;;;;15.00;6.63;;;10.90;99.90;;;;;;5035605;28;20090;-61
2023/03/20 04:01:03;;;;;;;13.80;7.05;;;12.40;99.90;;;;;;5038407;28;20048;-61
2023/03/20 04:03:37;;;;;;;16.77;7.22;;;10.50;99.90;;;;;;5052242;28;20155;-61
2023/03/20 04:06:05;;;;;;;19.58;8.93;;;10.00;99.90;;;;;;5048378;28;20058;-61
2023/03/20 04:08:32;;;;;;;16.35;9.10;;;12.30;99.90;;;;;;5051449;28;20040;-61
2023/03/20 04:10:57;;;;;;;24.13;9.15;;;12.30;99.90;;;;;;5047878;28;20037;-61
2023/03/20 04:13:23;;;;;;;17.45;9.60;;;12.20;99.90;;;;;;5050568;28;20406;-61
2023/03/20 04:15:49;;;;;;;18.55;9.85;;;10.70;99.90;;;;;;5052196;28;20037;-61
2023/03/20 04:18:16;;;;;;;16.10;10.25;;;10.20;99.90;;;;;;5052392;28;20099;-61
2023/03/20 04:20:43;;;;;;;21.20;10.55;;;11.60;99.90;;;;;;5052084;28;20045;-61
2023/03/20 04:23:09;;;;;;;15.73;9.43;;;10.20;99.90;;;;;;5032956;28;20057;-61
2023/03/20 04:25:35;;;;;;;19.15;9.77;;;11.70;99.90;;;;;;5044284;28;20053;-61
2023/03/20 04:28:00;;;;;;;18.13;8.38;;;11.90;99.90;;;;;;5042170;28;20422;-61
2023/03/20 04:30:26;;;;;;;19.00;9.52;;;10.20;99.90;;;;;;5031736;28;20046;-61
2023/03/20 04:32:53;;;;;;;18.73;10.63;;;12.20;99.90;;;;;;5044690;28;20509;-61
2023/03/20 04:35:18;;;;;;;17.55;9.75;;;12.30;99.90;;;;;;5046019;28;20168;-62
2023/03/20 04:37:44;;;;;;;20.52;10.95;;;12.10;99.90;;;;;;5050310;28;20045;-61
2023/03/20 04:40:10;;;;;;;19.60;11.80;;;12.20;99.90;;;;;;5031962;28;20045;-61
2023/03/20 04:42:36;;;;;;;22.30;12.90;;;10.10;99.90;;;;;;5042629;28;20136;-61
2023/03/20 04:45:01;;;;;;;27.05;13.65;;;10.50;99.90;;;;;;5051411;28;20120;-61
2023/03/20 04:47:27;;;;;;;21.02;13.15;;;10.10;99.90;;;;;;5051952;28;20044;-61
2023/03/20 04:49:52;;;;;;;23.15;13.13;;;11.80;99.90;;;;;;5046782;28;20491;-62
2023/03/20 04:52:18;;;;;;;24.63;14.60;;;11.40;99.90;;;;;;5036903;28;20391;-61
2023/03/20 04:54:43;;;;;;;23.40;13.68;;;12.20;99.90;;;;;;5040040;28;20429;-61
2023/03/20 04:57:09;;;;;;;22.60;12.50;;;11.60;99.90;;;;;;5050013;28;20036;-61
2023/03/20 04:59:35;;;;;;;25.20;12.65;;;10.80;99.90;;;;;;5031235;28;20045;-61
2023/03/20 05:02:00;;;;;;;22.65;11.65;;;12.00;99.90;;;;;;5036165;28;20049;-61
2023/03/20 05:04:26;;;;;;;21.13;11.57;;;9.90;99.90;;;;;;5036904;28;20045;-61
2023/03/20 05:06:52;;;;;;;20.02;11.65;;;10.80;99.90;;;;;;5049030;28;20045;-61
2023/03/20 05:09:17;;;;;;;21.00;12.88;;;11.80;99.90;;;;;;5051109;28;20490;-61
2023/03/20 05:11:43;;;;;;;21.25;12.32;;;10.90;99.90;;;;;;5049704;28;20040;-61
2023/03/20 05:14:10;;;;;;;23.27;11.63;;;12.00;99.90;;;;;;5038130;28;20551;-61
2023/03/20 05:16:36;;;;;;;22.90;12.65;;;9.90;99.90;;;;;;5033628;28;20068;-61
2023/03/20 05:19:02;;;;;;;20.38;11.25;;;10.30;99.90;;;;;;5050854;28;20064;-61
2023/03/20 05:21:28;;;;;;;23.42;12.93;;;9.80;99.90;;;;;;5049621;28;20087;-61
2023/03/20 05:23:53;;;;;;;22.70;12.27;;;10.70;99.90;;;;;;5049997;28;20037;-61
2023/03/20 05:26:19;;;;;;;19.50;11.13;;;9.60;99.90;;;;;;5050692;28;20044;-61
2023/03/20 05:28:44;;;;;;;22.92;11.45;;;9.70;99.90;;;;;;5039274;28;20083;-61
2023/03/20 05:31:10;;;;;;;19.23;10.77;;;12.90;99.90;;;;;;5031929;28;20112;-61
2023/03/20 05:33:36;;;;;;;21.67;10.55;;;10.30;99.90;;;;;;5048388;28;20041;-61
2023/03/20 05:36:02;;;;;;;24.67;10.25;;;11.90;99.90;;;;;;5050641;28;20041;-61
2023/03/20 05:38:28;;;;;;;23.52;10.65;;;11.50;99.90;;;;;;5047357;28;20045;-61
2023/03/20 05:40:57;;;;;;;17.98;9.25;;;10.20;99.90;;;;;;5036626;28;20481;-61
2023/03/20 05:43:23;;;;;;;20.45;10.73;;;11.20;99.90;;;;;;5035540;28;20517;-61
2023/03/20 05:45:49;;;;;;;17.48;9.55;;;11.60;99.90;;;;;;5030370;28;20033;-61
2023/03/20 05:48:14;;;;;;;21.23;11.00;;;11.70;99.90;;;;;;5030399;28;20076;-61
2023/03/20 05:50:40;;;;;;;18.55;9.98;;;11.60;99.90;;;;;;5033922;28;20067;-61
2023/03/20 05:53:06;;;;;;;20.58;10.27;;;9.80;99.90;;;;;;5038437;28;20037;-61
2023/03/20 05:55:32;;;;;;;20.08;10.45;;;10.00;99.90;;;;;;5030530;28;20030;-61
2023/03/20 05:57:58;;;;;;;18.08;9.57;;;11.70;99.90;;;;;;5028970;28;20111;-60
2023/03/20 06:00:23;;;;;;;20.92;9.65;;;11.90;99.90;;;;;;5030561;28;20045;-61
2023/03/20 06:02:49;;;;;;;21.50;9.38;;;10.30;99.90;;;;;;5046406;28;20106;-61
2023/03/20 06:05:15;;;;;;;21.30;9.32;;;9.90;99.90;;;;;;5049958;28;20044;-61
2023/03/20 06:07:40;;;;;;;23.33;8.85;;;10.10;99.90;;;;;;5050721;28;20734;-61
2023/03/20 06:10:06;;;;;;;20.25;8.63;;;11.90;99.90;;;;;;5050591;28;20045;-61
2023/03/20 06:12:32;;;;;;;23.30;9.50;;;10.60;99.90;;;;;;5044589;28;20540;-61
2023/03/20 06:14:57;;;;;;;21.73;9.27;;;11.70;99.90;;;;;;5028892;28;20411;-61
2023/03/20 06:17:23;;;;;;;19.50;9.27;;;12.00;99.90;;;;;;5039104;28;20167;-61
2023/03/20 06:19:49;;;;;;;21.88;9.88;;;10.80;99.90;;;;;;5030335;28;20077;-61
2023/03/20 06:22:14;;;;;;;20.17;9.27;;;10.20;99.90;;;;;;5030021;28;20069;-61
2023/03/20 06:24:42;;;;;;;21.30;10.18;;;11.40;99.90;;;;;;5033575;28;20107;-61
2023/03/20 06:27:07;;;;;;;22.42;10.50;;;9.80;99.90;;;;;;5045309;28;20034;-61
2023/03/20 06:29:33;;;;;;;21.33;10.35;;;10.20;99.90;;;;;;5031099;28;20475;-61
2023/03/20 06:31:58;;;;;;;23.10;9.63;;;10.80;99.90;;;;;;5046191;28;20037;-61
2023/03/20 06:34:24;;;;;;;24.80;10.90;;;11.80;99.90;;;;;;5046092;28;20047;-61
2023/03/20 06:36:50;;;;;;;23.23;10.02;;;11.40;99.90;;;;;;5050169;28;20087;-61
2023/03/20 06:39:16;;;;;;;20.48;10.80;;;10.10;99.90;;;;;;5035545;28;20069;-61
2023/03/20 06:41:41;;;;;;;20.30;9.93;;;12.30;99.90;;;;;;5037266;28;20055;-61
2023/03/20 06:44:07;;;;;;;23.92;11.27;;;11.80;99.90;;;;;;5044408;28;20044;-61
2023/03/20 06:46:32;;;;;;;23.20;10.95;;;12.00;99.90;;;;;;5035315;28;20513;-61
2023/03/20 06:48:58;;;;;;;23.52;10.95;;;10.40;99.90;;;;;;5030505;28;20048;-61
2023/03/20 06:51:24;;;;;;;20.90;11.50;;;10.70;99.90;;;;;;5034616;28;20029;-61
2023/03/20 06:53:50;;;;;;;19.80;10.40;;;12.40;99.90;;;;;;5043340;28;20029;-61
2023/03/20 06:56:15;;;;;;;26.10;11.95;;;12.50;99.90;;;;;;5053681;28;20067;-61
2023/03/20 06:58:41;;;;;;;24.85;11.63;;;10.30;99.90;;;;;;5041994;28;20041;-61
2023/03/20 07:01:12;;;;;;;22.00;12.57;;;12.40;99.90;;;;;;5042275;28;20069;-61
2023/03/20 07:03:38;;;;;;;25.08;12.75;;;10.90;99.90;;;;;;5048208;28;20040;-61
2023/03/20 07:06:05;;;;;;;22.95;13.50;;;11.40;99.90;;;;;;5033121;28;20100;-61
2023/03/20 07:08:31;;;;;;;28.90;13.82;;;12.10;99.90;;;;;;5033847;28;20048;-61
2023/03/20 07:10:57;;;;;;;24.73;14.18;;;12.40;99.90;;;;;;5034541;28;20036;-61
2023/03/20 07:13:23;;;;;;;22.45;12.48;;;11.80;99.90;;;;;;5041335;28;20112;-61
2023/03/20 07:15:49;;;;;;;25.55;14.07;;;10.80;99.90;;;;;;5045589;28;20120;-61
2023/03/20 07:18:15;;;;;;;24.83;12.70;;;12.20;99.90;;;;;;5044855;28;20546;-61
2023/03/20 07:20:40;;;;;;;24.10;12.30;;;12.30;99.90;;;;;;5047642;28;20045;-61
2023/03/20 07:23:06;;;;;;;24.88;12.63;;;12.30;99.90;;;;;;5037256;28;20065;-61
2023/03/20 07:25:31;;;;;;;28.63;13.02;;;11.90;99.90;;;;;;5038863;28;20045;-61
2023/03/20 07:27:58;;;;;;;24.95;13.55;;;12.60;99.90;;;;;;5038802;28;20037;-62
2023/03/20 07:30:23;;;;;;;26.73;13.38;;;10.90;99.90;;;;;;5036156;28;20052;-61
2023/03/20 07:32:49;;;;;;;27.33;12.25;;;10.80;99.90;;;;;;5049117;28;20067;-61
2023/03/20 07:35:14;;;;;;;27.52;12.65;;;12.70;99.90;;;;;;5048656;28;20533;-61
2023/03/20 07:37:40;;;;;;;25.17;12.63;;;12.60;99.90;;;;;;5036184;28;20060;-61
2023/03/20 07:40:07;;;;;;;26.02;12.80;;;11.40;99.90;;;;;;5036762;28;20038;-61
2023/03/20 07:42:33;;;;;;;30.92;13.77;;;10.60;99.90;;;;;;5041543;28;20089;-61
2023/03/20 07:44:58;;;;;;;27.15;12.98;;;10.90;99.90;;;;;;5038838;28;20041;-61
2023/03/20 07:47:24;;;;;;;23.10;12.57;;;10.70;99.90;;;;;;5034072;28;20036;-61
2023/03/20 07:49:49;;;;;;;27.77;12.30;;;12.20;99.90;;;;;;5036472;28;20037;-61
2023/03/20 07:52:16;;;;;;;23.73;10.77;;;10.80;99.90;;;;;;5046293;28;20118;-61
2023/03/20 07:54:41;;;;;;;24.80;11.75;;;11.50;99.90;;;;;;5033259;28;20484;-68
2023/03/20 07:57:07;;;;;;;26.02;12.63;;;10.80;99.90;;;;;;5037378;28;20029;-61
2023/03/20 07:59:32;;;;;;;25.45;12.95;;;12.60;99.90;;;;;;5049037;28;20533;-61
2023/03/20 08:01:58;;;;;;;26.30;11.38;;;13.00;99.90;;;;;;5035099;28;20372;-61
2023/03/20 08:04:24;;;;;;;21.80;10.55;;;11.10;99.90;;;;;;5037081;28;20121;-61
2023/03/20 08:06:50;;;;;;;26.60;11.27;;;12.50;99.90;;;;;;5041384;28;20037;-61
2023/03/20 08:09:16;;;;;;;25.02;10.50;;;11.10;99.90;;;;;;5035386;28;20083;-61
2023/03/20 08:11:42;;;;;;;18.45;9.85;;;10.80;99.90;;;;;;5047238;28;20040;-61
2023/03/20 08:14:07;;;;;;;20.25;10.43;;;12.60;99.90;;;;;;5036409;28;20037;-61
2023/03/20 08:16:33;;;;;;;21.33;8.77;;;13.00;99.90;;;;;;5040990;28;20403;-60
2023/03/20 08:19:00;;;;;;;21.13;9.40;;;11.10;99.90;;;;;;5034966;28;20037;-60
2023/03/20 08:21:30;;;;;;;24.75;9.65;;;12.60;99.90;;;;;;5037048;28;20076;-60
2023/03/20 08:23:56;;;;;;;19.50;9.35;;;10.90;99.90;;;;;;5034873;28;20574;-61
2023/03/20 08:26:23;;;;;;;25.17;10.07;;;11.10;99.90;;;;;;5042785;28;20033;-60
2023/03/20 08:28:48;;;;;;;24.08;10.07;;;11.00;99.90;;;;;;5047611;28;20121;-60
2023/03/20 08:31:16;;;;;;;22.27;8.38;;;11.70;99.90;;;;;;5043787;28;20116;-59
2023/03/20 08:33:42;;;;;;;23.70;9.45;;;10.70;99.90;;;;;;5036306;28;20044;-60
2023/03/20 08:36:08;;;;;;;20.45;8.95;;;11.00;99.90;;;;;;5047490;28;20052;-60
2023/03/20 08:38:34;;;;;;;26.58;8.55;;;12.30;99.90;;;;;;5046831;28;20055;-60
2023/03/20 08:41:00;;;;;;;21.13;7.72;;;12.10;99.90;;;;;;5042237;28;20582;-60
2023/03/20 08:43:25;;;;;;;20.52;8.52;;;11.20;99.90;;;;;;5046418;28;20088;-60
2023/03/20 08:45:52;;;;;;;22.17;9.15;;;11.00;99.90;;;;;;5036934;28;20042;-61
2023/03/20 08:48:17;;;;;;;24.63;9.65;;;12.60;99.90;;;;;;5035646;28;20037;-61
2023/03/20 08:50:43;;;;;;;27.40;10.00;;;11.50;99.90;;;;;;5033193;28;20132;-61
2023/03/20 08:53:09;;;;;;;23.58;11.15;;;12.50;99.90;;;;;;5035430;28;20482;-60
2023/03/20 08:55:34;;;;;;;29.35;10.88;;;12.20;99.90;;;;;;5043010;28;20395;-61
2023/03/20 08:58:00;;;;;;;27.67;9.90;;;12.80;99.90;;;;;;5040018;28;20037;-61
2023/03/20 09:00:26;;;;;;;27.80;11.13;;;11.20;99.90;;;;;;5038051;28;20042;-60
2023/03/20 09:02:52;;;;;;;26.08;10.60;;;13.40;99.90;;;;;;5043298;28;20037;-60
2023/03/20 09:05:17;;;;;;;30.08;9.68;;;11.40;99.90;;;;;;5050781;28;20071;-61
2023/03/20 09:07:43;;;;;;;25.52;8.95;;;13.20;99.90;;;;;;5044444;28;20037;-61
2023/03/20 09:10:10;;;;;;;22.83;9.50;;;12.90;99.90;;;;;;5033263;28;20610;-60
2023/03/20 09:12:36;;;;;;;24.80;9.23;;;11.30;99.90;;;;;;5041925;28;20037;-61
2023/03/20 09:15:03;;;;;;;26.60;9.90;;;11.40;99.90;;;;;;5032735;28;20033;-61
2023/03/20 09:17:30;;;;;;;27.85;9.48;;;12.60;99.90;;;;;;5037232;28;20055;-61
2023/03/20 09:19:56;;;;;;;26.83;9.63;;;13.20;99.90;;;;;;5034533;28;20439;-60
2023/03/20 09:22:21;;;;;;;34.30;9.27;;;11.60;99.90;;;;;;5038398;28;20087;-60
2023/03/20 09:24:47;;;;;;;22.13;8.95;;;13.00;99.90;;;;;;5036385;28;20041;-61
2023/03/20 09:27:13;;;;;;;26.08;8.75;;;11.20;99.90;;;;;;5030659;28;20045;-61
2023/03/20 09:29:42;;;;;;;25.73;8.63;;;12.20;99.90;;;;;;5041936;28;20041;-61
2023/03/20 09:32:11;;;;;;;29.23;8.35;;;11.10;99.90;;;;;;5035852;28;20128;-61
2023/03/20 09:34:37;;;;;;;23.35;8.50;;;11.50;99.90;;;;;;5043061;28;20095;-61
2023/03/20 09:37:03;;;;;;;34.67;8.85;;;12.90;99.90;;;;;;5039763;28;20395;-61
2023/03/20 09:39:29;;;;;;;27.38;7.68;;;11.50;99.90;;;;;;5049765;28;20083;-60
2023/03/20 09:42:00;;;;;;;28.13;7.25;;;11.30;99.90;;;;;;5035273;28;20041;-61
2023/03/20 09:44:47;;;;;;;24.88;6.55;;;11.90;99.90;;;;;;5039762;28;20041;-61
2023/03/20 09:47:32;;;;;;;23.08;6.50;;;12.00;99.90;;;;;;5046478;28;20102;-61
2023/03/20 09:50:31;;;;;;;26.58;6.75;;;12.30;99.90;;;;;;5048085;28;20044;-61
2023/03/20 09:53:01;;;;;;;27.08;5.65;;;11.60;99.90;;;;;;5039921;28;20118;-61
2023/03/20 09:55:34;;;;;;;23.38;5.40;;;13.10;99.90;;;;;;5036474;28;20033;-61
2023/03/20 09:58:26;;;;;;;28.45;6.07;;;11.10;99.90;;;;;;5053736;28;20637;-61
2023/03/20 10:00:56;;;;;;;22.92;5.13;;;12.10;99.90;;;;;;5041928;28;20045;-61
2023/03/20 10:03:49;;;;;;;29.80;6.30;;;12.70;99.90;;;;;;5034786;28;20502;-61
2023/03/20 10:06:16;;;;;;;23.08;5.13;;;10.70;99.90;;;;;;5030835;28;20053;-61
2023/03/20 10:08:44;;;;;;;25.85;5.40;;;10.70;99.90;;;;;;5043748;28;20151;-60
2023/03/20 10:11:44;;;;;;;29.70;5.45;;;10.50;99.90;;;;;;5047804;28;20076;-61
2023/03/20 10:14:40;;;;;;;27.60;5.90;;;10.90;99.90;;;;;;5001390;28;20543;-61
2023/03/20 10:17:39;;;;;;;27.15;5.50;;;12.90;99.90;;;;;;5034532;28;20053;-60
2023/03/20 10:20:35;;;;;;;27.10;4.75;;;12.20;99.90;;;;;;5042719;28;20044;-61
2023/03/20 10:23:18;;;;;;;26.40;5.45;;;10.80;99.90;;;;;;5033970;28;20061;-61
2023/03/20 10:26:02;;;;;;;22.33;5.13;;;11.50;99.90;;;;;;5045315;28;20059;-60
2023/03/20 10:28:36;;;;;;;27.50;5.00;;;11.40;99.90;;;;;;5047424;28;20045;-60
2023/03/20 10:31:43;;;;;;;21.15;5.40;;;12.70;99.90;;;;;;5043664;28;20045;-61
2023/03/20 10:34:49;;;;;;;30.13;6.63;;;10.50;99.90;;;;;;5015360;28;20554;-60
2023/03/20 10:37:32;;;;;;;25.25;5.22;;;11.30;99.90;;;;;;5050493;28;20033;-61
2023/03/20 10:40:16;;;;;;;30.77;5.93;;;11.10;99.90;;;;;;5044341;28;20065;-61
2023/03/20 10:42:46;;;;;;;27.27;6.32;;;11.20;99.90;;;;;;5045418;28;20044;-60
2023/03/20 10:45:30;;;;;;;28.52;5.68;;;11.40;99.90;;;;;;5044071;28;20048;-60
2023/03/20 10:47:58;;;;;;;26.85;5.72;;;13.20;99.90;;;;;;5050748;28;20078;-60
2023/03/20 10:50:32;;;;;;;30.02;5.57;;;11.40;99.90;;;;;;5042240;28;20986;-60
2023/03/20 10:53:01;;;;;;;28.40;5.13;;;12.50;99.90;;;;;;5043096;28;20037;-60
2023/03/20 10:55:33;;;;;;;31.05;5.32;;;10.40;99.90;;;;;;5033837;28;20041;-60
2023/03/20 10:58:23;;;;;;;26.30;5.32;;;10.50;99.90;;;;;;5034374;28;20043;-60
2023/03/20 11:00:49;;;;;;;23.27;5.18;;;12.60;99.90;;;;;;5040551;28;20041;-60
2023/03/20 11:03:21;;;;;;;28.23;5.28;;;10.80;99.90;;;;;;5049301;28;20052;-60
2023/03/20 11:05:53;;;;;;;29.30;5.68;;;12.70;99.90;;;;;;5047521;28;20071;-61
2023/03/20 11:08:24;;;;;;;22.02;5.63;;;12.70;99.90;;;;;;5041863;28;20064;-60
2023/03/20 11:10:59;;;;;;;26.35;5.68;;;12.60;99.90;;;;;;5038178;28;20128;-60
2023/03/20 11:13:32;;;;;;;23.52;5.57;;;13.20;99.90;;;;;;5047729;28;20049;-60
2023/03/20 11:16:16;;;;;;;17.02;5.40;;;10.70;99.90;;;;;;5047674;28;20041;-60
2023/03/20 11:18:41;;;;;;;23.40;5.78;;;10.40;99.90;;;;;;5047129;28;20071;-60
2023/03/20 11:21:16;;;;;;;14.15;4.60;;;10.30;99.90;;;;;;5044898;28;20072;-60
2023/03/20 11:23:42;;;;;;;13.88;4.22;;;12.40;99.90;;;;;;5044970;28;20036;-60
2023/03/20 11:26:16;;;;;;;11.13;4.60;;;12.40;99.90;;;;;;5036889;28;20077;-60
2023/03/20 11:28:53;;;;;;;12.48;4.25;;;10.40;99.90;;;;;;5042456;28;20521;-61
2023/03/20 11:31:40;;;;;;;13.90;4.35;;;10.40;99.90;;;;;;5039375;28;20045;-61
2023/03/20 11:34:13;;;;;;;11.73;3.85;;;10.10;99.90;;;;;;5048671;28;20562;-60
2023/03/20 11:36:44;;;;;;;13.27;4.38;;;11.70;99.90;;;;;;5039016;28;20037;-60
2023/03/20 11:39:13;;;;;;;8.23;3.50;;;10.50;99.90;;;;;;5044908;28;20059;-60
2023/03/20 11:41:49;;;;;;;8.63;3.38;;;13.20;99.90;;;;;;5035139;28;20045;-60
2023/03/20 11:44:29;;;;;;;8.05;4.15;;;10.50;99.90;;;;;;5048778;28;20797;-61
2023/03/20 11:46:56;;;;;;;11.77;3.80;;;10.60;99.90;;;;;;5038812;28;20091;-61
2023/03/20 11:49:24;;;;;;;9.68;4.18;;;11.60;99.90;;;;;;5069025;28;20045;-60
2023/03/20 11:51:51;;;;;;;11.20;4.10;;;13.00;99.90;;;;;;5036331;28;20434;-61
2023/03/20 11:54:21;;;;;;;10.60;4.43;;;11.20;99.90;;;;;;5036672;28;20032;-61
2023/03/20 11:57:00;;;;;;;9.18;3.80;;;12.80;99.90;;;;;;5036511;28;20029;-61
2023/03/20 11:59:32;;;;;;;14.73;5.00;;;10.50;99.90;;;;;;5036108;28;20037;-60
2023/03/20 12:01:59;;;;;;;10.32;4.32;;;12.10;99.90;;;;;;5040874;28;20044;-61
2023/03/20 12:04:42;;;;;;;8.73;4.22;;;11.60;99.90;;;;;;5053283;28;20036;-61
2023/03/20 12:07:26;;;;;;;13.85;5.32;;;12.50;99.90;;;;;;5038229;28;20053;-61
2023/03/20 12:09:54;;;;;;;11.70;5.13;;;13.30;99.90;;;;;;5018473;28;20049;-61
2023/03/20 12:12:49;;;;;;;7.70;4.65;;;13.00;99.90;;;;;;5046032;28;20897;-60
2023/03/20 12:15:25;;;;;;;12.77;4.75;;;12.90;99.90;;;;;;5036518;28;20053;-60
2023/03/20 12:17:55;;;;;;;;;;;13.30;99.90;;;;;;5037826;28;20033;-60
2023/03/20 12:20:45;;;;;;;10.80;5.35;;;10.50;99.90;;;;;;5035775;28;19942;-61
2023/03/20 12:23:13;;;;;;;6.28;3.70;;;10.70;99.90;;;;;;5037414;28;20053;-61
2023/03/20 12:25:50;;;;;;;7.68;4.30;;;11.80;99.90;;;;;;5037632;28;20565;-61
2023/03/20 12:28:46;;;;;;;10.02;5.00;;;11.80;99.90;;;;;;5040651;28;20041;-61
2023/03/20 12:31:23;;;;;;;9.93;5.47;;;12.90;99.90;;;;;;5042067;28;20449;-61
2023/03/20 12:34:03;;;;;;;11.75;5.85;;;12.80;99.90;;;;;;5042254;28;20045;-61
2023/03/20 12:36:34;;;;;;;7.13;5.18;;;12.30;99.90;;;;;;5044173;28;20123;-61
2023/03/20 12:39:05;;;;;;;10.05;5.30;;;11.00;99.90;;;;;;5040855;28;20514;-61
2023/03/20 12:41:57;;;;;;;13.00;6.63;;;12.60;99.90;;;;;;5040049;28;20041;-61
2023/03/20 12:44:54;;;;;;;11.40;5.55;;;13.20;99.90;;;;;;5043220;28;20037;-61
2023/03/20 12:47:26;;;;;;;11.00;5.45;;;11.00;99.90;;;;;;5032971;28;20438;-61
2023/03/20 12:50:06;;;;;;;10.38;6.32;;;10.80;99.90;;;;;;5038320;28;20049;-61
2023/03/20 12:52:44;;;;;;;10.70;6.72;;;10.60;99.90;;;;;;5038563;28;20036;-61
2023/03/20 12:55:33;;;;;;;10.40;5.93;;;10.40;99.90;;;;;;5034189;28;20046;-61